sensor_id;sensor_type;location;lat;lon;timestamp;temperature;humidity
68235;DHT22;55052;52.056;5.296;2022-07-17T00:02:17;14.80;59.90
68235;DHT22;55052;52.056;5.296;2022-07-17T00:04:44;14.70;60.00
68235;DHT22;55052;52.056;5.296;2022-07-17T00:07:11;14.70;60.10
68235;DHT22;55052;52.056;5.296;2022-07-17T00:09:38;14.60;60.20
68235;DHT22;55052;52.056;5.296;2022-07-17T00:12:05;14.60;60.40
68235;DHT22;55052;52.056;5.296;2022-07-17T00:14:32;14.50;60.10
68235;DHT22;55052;52.056;5.296;2022-07-17T00:16:59;14.50;60.20
68235;DHT22;55052;52.056;5.296;2022-07-17T00:19:26;14.50;60.60
68235;DHT22;55052;52.056;5.296;2022-07-17T00:21:53;14.40;60.50
68235;DHT22;55052;52.056;5.296;2022-07-17T00:24:20;14.40;60.60
68235;DHT22;55052;52.056;5.296;2022-07-17T00:26:47;14.40;60.70
68235;DHT22;55052;52.056;5.296;2022-07-17T00:29:14;14.30;60.70
68235;DHT22;55052;52.056;5.296;2022-07-17T00:31:42;14.20;60.70
68235;DHT22;55052;52.056;5.296;2022-07-17T00:34:10;14.20;60.60
68235;DHT22;55052;52.056;5.296;2022-07-17T00:36:37;14.20;60.60
68235;DHT22;55052;52.056;5.296;2022-07-17T00:39:04;14.10;60.70
68235;DHT22;55052;52.056;5.296;2022-07-17T00:41:31;14.10;61.00
68235;DHT22;55052;52.056;5.296;2022-07-17T00:44:05;14.10;60.80
68235;DHT22;55052;52.056;5.296;2022-07-17T00:46:33;14.10;60.80
68235;DHT22;55052;52.056;5.296;2022-07-17T00:49:01;14.00;60.80
68235;DHT22;55052;52.056;5.296;2022-07-17T00:51:28;14.00;60.90
68235;DHT22;55052;52.056;5.296;2022-07-17T00:53:58;14.00;60.90
68235;DHT22;55052;52.056;5.296;2022-07-17T00:56:31;14.00;61.10
68235;DHT22;55052;52.056;5.296;2022-07-17T00:59:00;13.90;62.20
68235;DHT22;55052;52.056;5.296;2022-07-17T01:01:30;13.90;61.20
68235;DHT22;55052;52.056;5.296;2022-07-17T01:03:58;13.90;61.40
68235;DHT22;55052;52.056;5.296;2022-07-17T01:06:25;13.80;61.40
68235;DHT22;55052;52.056;5.296;2022-07-17T01:08:52;13.80;61.30
68235;DHT22;55052;52.056;5.296;2022-07-17T01:11:20;13.80;61.30
68235;DHT22;55052;52.056;5.296;2022-07-17T01:13:47;13.70;61.60
68235;DHT22;55052;52.056;5.296;2022-07-17T01:16:14;13.70;61.50
68235;DHT22;55052;52.056;5.296;2022-07-17T01:18:42;13.70;61.70
68235;DHT22;55052;52.056;5.296;2022-07-17T01:21:09;13.60;61.50
68235;DHT22;55052;52.056;5.296;2022-07-17T01:23:35;13.60;61.70
68235;DHT22;55052;52.056;5.296;2022-07-17T01:26:02;13.60;61.60
68235;DHT22;55052;52.056;5.296;2022-07-17T01:28:29;13.60;61.60
68235;DHT22;55052;52.056;5.296;2022-07-17T01:30:57;13.50;61.80
68235;DHT22;55052;52.056;5.296;2022-07-17T01:33:24;13.50;61.90
68235;DHT22;55052;52.056;5.296;2022-07-17T01:35:51;13.50;62.10
68235;DHT22;55052;52.056;5.296;2022-07-17T01:38:18;13.40;62.00
68235;DHT22;55052;52.056;5.296;2022-07-17T01:40:45;13.40;62.00
68235;DHT22;55052;52.056;5.296;2022-07-17T01:43:12;13.30;62.00
68235;DHT22;55052;52.056;5.296;2022-07-17T01:45:39;13.30;61.90
68235;DHT22;55052;52.056;5.296;2022-07-17T01:48:06;13.30;62.00
68235;DHT22;55052;52.056;5.296;2022-07-17T01:50:32;13.20;62.20
68235;DHT22;55052;52.056;5.296;2022-07-17T01:52:59;13.20;62.00
68235;DHT22;55052;52.056;5.296;2022-07-17T01:55:26;13.20;62.00
68235;DHT22;55052;52.056;5.296;2022-07-17T01:57:52;13.20;63.00
68235;DHT22;55052;52.056;5.296;2022-07-17T02:00:19;13.10;62.10
68235;DHT22;55052;52.056;5.296;2022-07-17T02:02:49;13.10;62.30
68235;DHT22;55052;52.056;5.296;2022-07-17T02:05:16;13.00;62.30
68235;DHT22;55052;52.056;5.296;2022-07-17T02:07:42;13.00;62.30
68235;DHT22;55052;52.056;5.296;2022-07-17T02:10:11;12.90;62.40
68235;DHT22;55052;52.056;5.296;2022-07-17T02:12:42;12.90;62.40
68235;DHT22;55052;52.056;5.296;2022-07-17T02:15:09;12.90;62.50
68235;DHT22;55052;52.056;5.296;2022-07-17T02:17:36;12.90;62.60
68235;DHT22;55052;52.056;5.296;2022-07-17T02:20:03;12.80;62.50
68235;DHT22;55052;52.056;5.296;2022-07-17T02:22:31;12.80;62.50
68235;DHT22;55052;52.056;5.296;2022-07-17T02:24:58;12.80;62.50
68235;DHT22;55052;52.056;5.296;2022-07-17T02:27:24;12.80;62.40
68235;DHT22;55052;52.056;5.296;2022-07-17T02:29:51;12.70;62.70
68235;DHT22;55052;52.056;5.296;2022-07-17T02:32:18;12.70;62.80
68235;DHT22;55052;52.056;5.296;2022-07-17T02:34:45;12.70;63.00
68235;DHT22;55052;52.056;5.296;2022-07-17T02:37:12;12.70;62.80
68235;DHT22;55052;52.056;5.296;2022-07-17T02:39:39;12.70;62.90
68235;DHT22;55052;52.056;5.296;2022-07-17T02:42:23;12.60;62.70
68235;DHT22;55052;52.056;5.296;2022-07-17T02:44:50;12.60;62.90
68235;DHT22;55052;52.056;5.296;2022-07-17T02:47:36;12.60;63.10
68235;DHT22;55052;52.056;5.296;2022-07-17T02:50:05;12.60;63.00
68235;DHT22;55052;52.056;5.296;2022-07-17T02:52:32;12.50;62.90
68235;DHT22;55052;52.056;5.296;2022-07-17T02:55:00;12.50;63.00
68235;DHT22;55052;52.056;5.296;2022-07-17T02:57:26;12.50;63.30
68235;DHT22;55052;52.056;5.296;2022-07-17T02:59:53;12.40;63.40
68235;DHT22;55052;52.056;5.296;2022-07-17T03:02:20;12.40;63.10
68235;DHT22;55052;52.056;5.296;2022-07-17T03:04:47;12.40;63.20
68235;DHT22;55052;52.056;5.296;2022-07-17T03:07:13;12.30;63.30
68235;DHT22;55052;52.056;5.296;2022-07-17T03:09:40;12.30;63.40
68235;DHT22;55052;52.056;5.296;2022-07-17T03:12:07;12.30;63.50
68235;DHT22;55052;52.056;5.296;2022-07-17T03:14:34;12.20;63.50
68235;DHT22;55052;52.056;5.296;2022-07-17T03:17:00;12.20;63.60
68235;DHT22;55052;52.056;5.296;2022-07-17T03:19:27;12.10;63.50
68235;DHT22;55052;52.056;5.296;2022-07-17T03:21:54;12.10;63.50
68235;DHT22;55052;52.056;5.296;2022-07-17T03:24:21;12.10;63.70
68235;DHT22;55052;52.056;5.296;2022-07-17T03:26:47;12.10;63.80
68235;DHT22;55052;52.056;5.296;2022-07-17T03:29:14;12.10;63.80
68235;DHT22;55052;52.056;5.296;2022-07-17T03:31:45;12.10;63.70
68235;DHT22;55052;52.056;5.296;2022-07-17T03:34:12;12.10;63.80
68235;DHT22;55052;52.056;5.296;2022-07-17T03:36:40;12.10;63.80
68235;DHT22;55052;52.056;5.296;2022-07-17T03:39:07;12.10;63.70
68235;DHT22;55052;52.056;5.296;2022-07-17T03:41:34;12.10;63.80
68235;DHT22;55052;52.056;5.296;2022-07-17T03:44:01;12.10;63.60
68235;DHT22;55052;52.056;5.296;2022-07-17T03:46:28;12.10;63.90
68235;DHT22;55052;52.056;5.296;2022-07-17T03:48:55;12.10;64.10
68235;DHT22;55052;52.056;5.296;2022-07-17T03:51:23;12.10;64.00
68235;DHT22;55052;52.056;5.296;2022-07-17T03:53:49;12.10;63.90
68235;DHT22;55052;52.056;5.296;2022-07-17T03:56:19;12.10;63.90
68235;DHT22;55052;52.056;5.296;2022-07-17T03:58:46;12.10;64.00
68235;DHT22;55052;52.056;5.296;2022-07-17T04:01:13;12.10;64.10
68235;DHT22;55052;52.056;5.296;2022-07-17T04:03:40;12.20;64.20
68235;DHT22;55052;52.056;5.296;2022-07-17T04:06:06;12.10;64.20
68235;DHT22;55052;52.056;5.296;2022-07-17T04:08:33;12.20;64.30
68235;DHT22;55052;52.056;5.296;2022-07-17T04:11:00;12.10;64.20
68235;DHT22;55052;52.056;5.296;2022-07-17T04:13:35;12.10;64.30
68235;DHT22;55052;52.056;5.296;2022-07-17T04:16:02;12.10;64.20
68235;DHT22;55052;52.056;5.296;2022-07-17T04:18:32;12.10;64.10
68235;DHT22;55052;52.056;5.296;2022-07-17T04:21:03;12.20;64.20
68235;DHT22;55052;52.056;5.296;2022-07-17T04:23:30;12.20;64.20
68235;DHT22;55052;52.056;5.296;2022-07-17T04:25:58;12.20;64.30
68235;DHT22;55052;52.056;5.296;2022-07-17T04:28:25;12.10;64.20
68235;DHT22;55052;52.056;5.296;2022-07-17T04:30:51;12.20;64.50
68235;DHT22;55052;52.056;5.296;2022-07-17T04:33:18;12.20;64.40
68235;DHT22;55052;52.056;5.296;2022-07-17T04:35:45;12.20;64.30
68235;DHT22;55052;52.056;5.296;2022-07-17T04:38:12;12.20;64.40
68235;DHT22;55052;52.056;5.296;2022-07-17T04:40:39;12.30;64.50
68235;DHT22;55052;52.056;5.296;2022-07-17T04:43:06;12.30;64.40
68235;DHT22;55052;52.056;5.296;2022-07-17T04:45:33;12.30;64.40
68235;DHT22;55052;52.056;5.296;2022-07-17T04:48:00;12.30;64.50
68235;DHT22;55052;52.056;5.296;2022-07-17T04:50:27;12.30;64.30
68235;DHT22;55052;52.056;5.296;2022-07-17T04:52:54;12.30;64.50
68235;DHT22;55052;52.056;5.296;2022-07-17T04:55:21;12.30;64.50
68235;DHT22;55052;52.056;5.296;2022-07-17T04:57:48;12.30;64.50
68235;DHT22;55052;52.056;5.296;2022-07-17T05:00:15;12.40;64.70
68235;DHT22;55052;52.056;5.296;2022-07-17T05:02:43;12.40;64.70
68235;DHT22;55052;52.056;5.296;2022-07-17T05:05:10;12.50;64.70
68235;DHT22;55052;52.056;5.296;2022-07-17T05:07:36;12.50;64.80
68235;DHT22;55052;52.056;5.296;2022-07-17T05:10:04;12.60;64.90
68235;DHT22;55052;52.056;5.296;2022-07-17T05:12:31;12.60;64.90
68235;DHT22;55052;52.056;5.296;2022-07-17T05:14:58;12.70;64.80
68235;DHT22;55052;52.056;5.296;2022-07-17T05:17:25;12.80;64.80
68235;DHT22;55052;52.056;5.296;2022-07-17T05:19:52;12.80;64.80
68235;DHT22;55052;52.056;5.296;2022-07-17T05:22:19;12.90;64.80
68235;DHT22;55052;52.056;5.296;2022-07-17T05:24:45;13.00;65.00
68235;DHT22;55052;52.056;5.296;2022-07-17T05:27:12;13.10;65.10
68235;DHT22;55052;52.056;5.296;2022-07-17T05:29:39;13.20;65.00
68235;DHT22;55052;52.056;5.296;2022-07-17T05:32:06;13.20;65.10
68235;DHT22;55052;52.056;5.296;2022-07-17T05:34:32;13.40;65.40
68235;DHT22;55052;52.056;5.296;2022-07-17T05:36:59;13.40;65.50
68235;DHT22;55052;52.056;5.296;2022-07-17T05:39:26;13.60;65.50
68235;DHT22;55052;52.056;5.296;2022-07-17T05:41:52;13.70;65.50
68235;DHT22;55052;52.056;5.296;2022-07-17T05:44:19;13.80;65.50
68235;DHT22;55052;52.056;5.296;2022-07-17T05:46:46;14.00;65.70
68235;DHT22;55052;52.056;5.296;2022-07-17T05:49:13;14.10;66.10
68235;DHT22;55052;52.056;5.296;2022-07-17T05:51:40;14.20;65.80
68235;DHT22;55052;52.056;5.296;2022-07-17T05:54:06;14.40;66.10
68235;DHT22;55052;52.056;5.296;2022-07-17T05:56:33;14.50;65.80
68235;DHT22;55052;52.056;5.296;2022-07-17T05:59:00;14.60;65.70
68235;DHT22;55052;52.056;5.296;2022-07-17T06:01:26;14.80;65.50
68235;DHT22;55052;52.056;5.296;2022-07-17T06:03:54;14.90;65.40
68235;DHT22;55052;52.056;5.296;2022-07-17T06:06:21;15.00;65.30
68235;DHT22;55052;52.056;5.296;2022-07-17T06:08:47;15.20;65.40
68235;DHT22;55052;52.056;5.296;2022-07-17T06:11:14;15.30;65.30
68235;DHT22;55052;52.056;5.296;2022-07-17T06:13:41;15.40;65.00
68235;DHT22;55052;52.056;5.296;2022-07-17T06:16:08;15.50;64.80
68235;DHT22;55052;52.056;5.296;2022-07-17T06:18:36;15.60;64.70
68235;DHT22;55052;52.056;5.296;2022-07-17T06:21:03;15.80;64.40
68235;DHT22;55052;52.056;5.296;2022-07-17T06:23:30;15.90;64.00
68235;DHT22;55052;52.056;5.296;2022-07-17T06:25:57;16.00;63.70
68235;DHT22;55052;52.056;5.296;2022-07-17T06:28:23;16.10;63.40
68235;DHT22;55052;52.056;5.296;2022-07-17T06:30:50;16.20;63.30
68235;DHT22;55052;52.056;5.296;2022-07-17T06:33:17;16.30;63.00
68235;DHT22;55052;52.056;5.296;2022-07-17T06:35:44;16.40;63.10
68235;DHT22;55052;52.056;5.296;2022-07-17T06:38:11;16.50;63.00
68235;DHT22;55052;52.056;5.296;2022-07-17T06:40:38;16.60;63.10
68235;DHT22;55052;52.056;5.296;2022-07-17T06:43:06;16.70;62.60
68235;DHT22;55052;52.056;5.296;2022-07-17T06:45:35;16.80;62.40
68235;DHT22;55052;52.056;5.296;2022-07-17T06:48:02;16.90;62.20
68235;DHT22;55052;52.056;5.296;2022-07-17T06:50:29;16.90;61.90
68235;DHT22;55052;52.056;5.296;2022-07-17T06:52:55;17.00;61.80
68235;DHT22;55052;52.056;5.296;2022-07-17T06:55:24;17.10;61.60
68235;DHT22;55052;52.056;5.296;2022-07-17T06:57:51;17.20;61.40
68235;DHT22;55052;52.056;5.296;2022-07-17T07:00:18;17.30;61.30
68235;DHT22;55052;52.056;5.296;2022-07-17T07:02:45;17.40;60.80
68235;DHT22;55052;52.056;5.296;2022-07-17T07:05:12;17.50;60.60
68235;DHT22;55052;52.056;5.296;2022-07-17T07:07:38;17.50;60.50
68235;DHT22;55052;52.056;5.296;2022-07-17T07:10:06;17.60;60.40
68235;DHT22;55052;52.056;5.296;2022-07-17T07:12:33;17.70;60.30
68235;DHT22;55052;52.056;5.296;2022-07-17T07:15:00;17.80;60.20
68235;DHT22;55052;52.056;5.296;2022-07-17T07:17:26;17.90;59.90
68235;DHT22;55052;52.056;5.296;2022-07-17T07:19:53;17.90;59.60
68235;DHT22;55052;52.056;5.296;2022-07-17T07:22:20;18.00;59.10
68235;DHT22;55052;52.056;5.296;2022-07-17T07:24:46;18.10;58.80
68235;DHT22;55052;52.056;5.296;2022-07-17T07:27:13;18.20;58.50
68235;DHT22;55052;52.056;5.296;2022-07-17T07:29:40;18.20;58.30
68235;DHT22;55052;52.056;5.296;2022-07-17T07:32:07;18.30;58.20
68235;DHT22;55052;52.056;5.296;2022-07-17T07:34:33;18.40;58.10
68235;DHT22;55052;52.056;5.296;2022-07-17T07:37:00;18.40;58.00
68235;DHT22;55052;52.056;5.296;2022-07-17T07:39:27;18.50;58.00
68235;DHT22;55052;52.056;5.296;2022-07-17T07:41:53;18.60;58.10
68235;DHT22;55052;52.056;5.296;2022-07-17T07:44:20;18.70;58.10
68235;DHT22;55052;52.056;5.296;2022-07-17T07:46:57;18.70;57.90
68235;DHT22;55052;52.056;5.296;2022-07-17T07:49:24;18.80;57.80
68235;DHT22;55052;52.056;5.296;2022-07-17T07:51:51;18.90;57.60
68235;DHT22;55052;52.056;5.296;2022-07-17T07:54:29;19.00;57.60
68235;DHT22;55052;52.056;5.296;2022-07-17T07:56:56;19.10;57.50
68235;DHT22;55052;52.056;5.296;2022-07-17T07:59:23;19.10;57.10
68235;DHT22;55052;52.056;5.296;2022-07-17T08:01:50;19.20;56.90
68235;DHT22;55052;52.056;5.296;2022-07-17T08:04:17;19.20;56.60
68235;DHT22;55052;52.056;5.296;2022-07-17T08:06:44;19.30;56.50
68235;DHT22;55052;52.056;5.296;2022-07-17T08:09:11;19.30;56.40
68235;DHT22;55052;52.056;5.296;2022-07-17T08:11:38;19.40;56.10
68235;DHT22;55052;52.056;5.296;2022-07-17T08:14:05;19.50;56.00
68235;DHT22;55052;52.056;5.296;2022-07-17T08:16:42;19.50;55.60
68235;DHT22;55052;52.056;5.296;2022-07-17T08:19:09;19.60;55.40
68235;DHT22;55052;52.056;5.296;2022-07-17T08:21:35;19.70;54.90
68235;DHT22;55052;52.056;5.296;2022-07-17T08:24:02;19.70;54.90
68235;DHT22;55052;52.056;5.296;2022-07-17T08:26:29;19.70;54.60
68235;DHT22;55052;52.056;5.296;2022-07-17T08:28:56;19.80;54.40
68235;DHT22;55052;52.056;5.296;2022-07-17T08:31:23;19.90;55.30
68235;DHT22;55052;52.056;5.296;2022-07-17T08:33:50;19.90;53.90
68235;DHT22;55052;52.056;5.296;2022-07-17T08:36:17;20.00;54.00
68235;DHT22;55052;52.056;5.296;2022-07-17T08:38:43;20.10;53.90
68235;DHT22;55052;52.056;5.296;2022-07-17T08:41:10;20.10;53.50
68235;DHT22;55052;52.056;5.296;2022-07-17T08:43:42;20.20;53.30
68235;DHT22;55052;52.056;5.296;2022-07-17T08:46:12;20.30;53.10
68235;DHT22;55052;52.056;5.296;2022-07-17T08:48:41;20.40;52.60
68235;DHT22;55052;52.056;5.296;2022-07-17T08:51:09;20.40;52.30
68235;DHT22;55052;52.056;5.296;2022-07-17T08:53:37;20.40;52.30
68235;DHT22;55052;52.056;5.296;2022-07-17T08:56:04;20.50;53.10
68235;DHT22;55052;52.056;5.296;2022-07-17T08:58:31;20.60;52.30
68235;DHT22;55052;52.056;5.296;2022-07-17T09:00:57;20.70;52.20
68235;DHT22;55052;52.056;5.296;2022-07-17T09:03:24;20.80;52.40
68235;DHT22;55052;52.056;5.296;2022-07-17T09:05:51;20.90;52.50
68235;DHT22;55052;52.056;5.296;2022-07-17T09:08:20;20.90;52.30
68235;DHT22;55052;52.056;5.296;2022-07-17T09:10:50;21.00;52.10
68235;DHT22;55052;52.056;5.296;2022-07-17T09:15:57;21.20;52.00
68235;DHT22;55052;52.056;5.296;2022-07-17T09:18:24;21.30;51.90
68235;DHT22;55052;52.056;5.296;2022-07-17T09:20:53;21.40;51.80
68235;DHT22;55052;52.056;5.296;2022-07-17T09:23:22;21.50;51.40
68235;DHT22;55052;52.056;5.296;2022-07-17T09:25:53;21.60;51.40
68235;DHT22;55052;52.056;5.296;2022-07-17T09:28:21;21.60;51.40
68235;DHT22;55052;52.056;5.296;2022-07-17T09:30:55;21.70;51.30
68235;DHT22;55052;52.056;5.296;2022-07-17T09:33:26;21.80;50.80
68235;DHT22;55052;52.056;5.296;2022-07-17T09:36:11;21.90;50.60
68235;DHT22;55052;52.056;5.296;2022-07-17T09:38:41;22.00;50.40
68235;DHT22;55052;52.056;5.296;2022-07-17T09:41:09;22.10;50.40
68235;DHT22;55052;52.056;5.296;2022-07-17T09:46:15;22.20;49.60
68235;DHT22;55052;52.056;5.296;2022-07-17T09:48:44;22.30;49.70
68235;DHT22;55052;52.056;5.296;2022-07-17T09:51:17;22.40;49.70
68235;DHT22;55052;52.056;5.296;2022-07-17T09:53:48;22.50;49.70
68235;DHT22;55052;52.056;5.296;2022-07-17T09:56:18;22.60;49.50
68235;DHT22;55052;52.056;5.296;2022-07-17T09:58:48;22.60;49.50
68235;DHT22;55052;52.056;5.296;2022-07-17T10:01:15;22.70;49.20
68235;DHT22;55052;52.056;5.296;2022-07-17T10:03:43;22.70;49.00
68235;DHT22;55052;52.056;5.296;2022-07-17T10:06:10;22.80;49.50
68235;DHT22;55052;52.056;5.296;2022-07-17T10:08:38;22.80;49.30
68235;DHT22;55052;52.056;5.296;2022-07-17T10:11:09;22.90;49.10
68235;DHT22;55052;52.056;5.296;2022-07-17T10:13:38;23.00;48.80
68235;DHT22;55052;52.056;5.296;2022-07-17T10:16:10;23.10;48.40
68235;DHT22;55052;52.056;5.296;2022-07-17T10:18:44;23.10;48.20
68235;DHT22;55052;52.056;5.296;2022-07-17T10:21:16;23.20;47.50
68235;DHT22;55052;52.056;5.296;2022-07-17T10:23:48;23.30;47.50
68235;DHT22;55052;52.056;5.296;2022-07-17T10:29:45;23.40;47.00
68235;DHT22;55052;52.056;5.296;2022-07-17T10:32:19;23.50;46.80
68235;DHT22;55052;52.056;5.296;2022-07-17T10:34:48;23.50;47.20
68235;DHT22;55052;52.056;5.296;2022-07-17T10:45:21;23.70;46.20
68235;DHT22;55052;52.056;5.296;2022-07-17T10:47:59;23.80;46.60
68235;DHT22;55052;52.056;5.296;2022-07-17T10:50:30;23.90;46.70
68235;DHT22;55052;52.056;5.296;2022-07-17T10:55:25;24.10;46.20
68235;DHT22;55052;52.056;5.296;2022-07-17T10:57:52;24.20;46.00
68235;DHT22;55052;52.056;5.296;2022-07-17T11:00:19;24.30;46.00
68235;DHT22;55052;52.056;5.296;2022-07-17T11:02:46;24.40;45.30
68235;DHT22;55052;52.056;5.296;2022-07-17T11:05:14;24.50;45.30
68235;DHT22;55052;52.056;5.296;2022-07-17T11:07:58;24.50;45.10
68235;DHT22;55052;52.056;5.296;2022-07-17T11:10:27;24.60;44.50
68235;DHT22;55052;52.056;5.296;2022-07-17T11:13:06;24.70;45.00
68235;DHT22;55052;52.056;5.296;2022-07-17T11:15:44;24.70;44.90
68235;DHT22;55052;52.056;5.296;2022-07-17T11:20:56;24.80;44.30
68235;DHT22;55052;52.056;5.296;2022-07-17T11:23:25;24.90;43.60
68235;DHT22;55052;52.056;5.296;2022-07-17T11:25:59;25.00;44.00
68235;DHT22;55052;52.056;5.296;2022-07-17T11:28:42;25.00;43.50
68235;DHT22;55052;52.056;5.296;2022-07-17T11:31:22;25.10;43.50
68235;DHT22;55052;52.056;5.296;2022-07-17T11:33:51;25.10;43.00
68235;DHT22;55052;52.056;5.296;2022-07-17T11:36:23;25.20;43.30
68235;DHT22;55052;52.056;5.296;2022-07-17T11:38:51;25.20;43.00
68235;DHT22;55052;52.056;5.296;2022-07-17T11:41:18;25.30;42.90
68235;DHT22;55052;52.056;5.296;2022-07-17T11:43:46;25.30;42.60
68235;DHT22;55052;52.056;5.296;2022-07-17T11:46:14;25.40;42.70
68235;DHT22;55052;52.056;5.296;2022-07-17T11:48:44;25.50;43.10
68235;DHT22;55052;52.056;5.296;2022-07-17T11:51:11;25.60;43.30
68235;DHT22;55052;52.056;5.296;2022-07-17T11:53:39;25.80;43.40
68235;DHT22;55052;52.056;5.296;2022-07-17T11:56:07;25.80;41.90
68235;DHT22;55052;52.056;5.296;2022-07-17T11:58:47;25.90;41.60
68235;DHT22;55052;52.056;5.296;2022-07-17T12:01:15;26.00;41.60
68235;DHT22;55052;52.056;5.296;2022-07-17T12:03:41;26.10;42.10
68235;DHT22;55052;52.056;5.296;2022-07-17T12:06:08;26.20;41.80
68235;DHT22;55052;52.056;5.296;2022-07-17T12:08:36;26.20;41.50
68235;DHT22;55052;52.056;5.296;2022-07-17T12:11:06;26.30;41.70
68235;DHT22;55052;52.056;5.296;2022-07-17T12:13:42;26.40;41.80
68235;DHT22;55052;52.056;5.296;2022-07-17T12:16:30;26.50;41.20
68235;DHT22;55052;52.056;5.296;2022-07-17T12:21:27;26.70;40.50
68235;DHT22;55052;52.056;5.296;2022-07-17T12:24:04;26.70;40.20
68235;DHT22;55052;52.056;5.296;2022-07-17T12:26:32;26.70;40.00
68235;DHT22;55052;52.056;5.296;2022-07-17T12:29:00;26.70;40.10
68235;DHT22;55052;52.056;5.296;2022-07-17T12:31:27;26.80;39.80
68235;DHT22;55052;52.056;5.296;2022-07-17T12:33:54;26.90;39.50
68235;DHT22;55052;52.056;5.296;2022-07-17T12:36:22;27.00;39.40
68235;DHT22;55052;52.056;5.296;2022-07-17T12:38:49;27.10;39.40
68235;DHT22;55052;52.056;5.296;2022-07-17T12:41:17;27.20;39.30
68235;DHT22;55052;52.056;5.296;2022-07-17T12:43:44;27.30;39.40
68235;DHT22;55052;52.056;5.296;2022-07-17T12:46:10;27.40;39.50
68235;DHT22;55052;52.056;5.296;2022-07-17T12:48:42;27.50;39.30
68235;DHT22;55052;52.056;5.296;2022-07-17T12:51:10;27.60;39.50
68235;DHT22;55052;52.056;5.296;2022-07-17T12:53:43;27.70;39.20
68235;DHT22;55052;52.056;5.296;2022-07-17T12:56:10;27.80;38.70
68235;DHT22;55052;52.056;5.296;2022-07-17T12:58:38;27.90;38.50
68235;DHT22;55052;52.056;5.296;2022-07-17T13:01:04;28.00;39.00
68235;DHT22;55052;52.056;5.296;2022-07-17T13:03:33;28.10;38.70
68235;DHT22;55052;52.056;5.296;2022-07-17T13:06:00;28.10;38.50
68235;DHT22;55052;52.056;5.296;2022-07-17T13:08:28;28.20;38.20
68235;DHT22;55052;52.056;5.296;2022-07-17T13:10:55;28.20;38.00
68235;DHT22;55052;52.056;5.296;2022-07-17T13:13:23;28.30;39.30
68235;DHT22;55052;52.056;5.296;2022-07-17T13:15:50;28.40;38.00
68235;DHT22;55052;52.056;5.296;2022-07-17T13:18:16;28.50;38.00
68235;DHT22;55052;52.056;5.296;2022-07-17T13:20:43;28.60;38.20
68235;DHT22;55052;52.056;5.296;2022-07-17T13:23:10;28.70;38.20
68235;DHT22;55052;52.056;5.296;2022-07-17T13:25:37;28.90;37.90
68235;DHT22;55052;52.056;5.296;2022-07-17T13:28:05;29.00;37.30
68235;DHT22;55052;52.056;5.296;2022-07-17T13:30:33;29.10;36.90
68235;DHT22;55052;52.056;5.296;2022-07-17T13:33:00;29.20;38.30
68235;DHT22;55052;52.056;5.296;2022-07-17T13:35:28;29.30;37.10
68235;DHT22;55052;52.056;5.296;2022-07-17T13:37:55;29.40;36.90
68235;DHT22;55052;52.056;5.296;2022-07-17T13:40:24;29.60;37.10
68235;DHT22;55052;52.056;5.296;2022-07-17T13:42:51;29.70;37.00
68235;DHT22;55052;52.056;5.296;2022-07-17T13:45:18;29.90;36.40
68235;DHT22;55052;52.056;5.296;2022-07-17T13:47:45;30.10;36.80
68235;DHT22;55052;52.056;5.296;2022-07-17T13:50:12;30.20;35.80
68235;DHT22;55052;52.056;5.296;2022-07-17T13:52:40;30.40;36.30
68235;DHT22;55052;52.056;5.296;2022-07-17T13:55:07;30.50;35.30
68235;DHT22;55052;52.056;5.296;2022-07-17T13:57:54;30.70;35.00
68235;DHT22;55052;52.056;5.296;2022-07-17T14:00:21;30.80;35.10
68235;DHT22;55052;52.056;5.296;2022-07-17T14:02:48;30.90;35.10
68235;DHT22;55052;52.056;5.296;2022-07-17T14:05:15;31.00;35.10
68235;DHT22;55052;52.056;5.296;2022-07-17T14:07:42;31.10;34.20
68235;DHT22;55052;52.056;5.296;2022-07-17T14:10:09;31.30;34.30
68235;DHT22;55052;52.056;5.296;2022-07-17T14:12:37;31.40;34.50
68235;DHT22;55052;52.056;5.296;2022-07-17T14:15:04;31.50;34.10
68235;DHT22;55052;52.056;5.296;2022-07-17T14:17:30;31.60;34.30
68235;DHT22;55052;52.056;5.296;2022-07-17T14:19:57;31.80;33.00
68235;DHT22;55052;52.056;5.296;2022-07-17T14:22:24;31.80;32.50
68235;DHT22;55052;52.056;5.296;2022-07-17T14:24:50;31.80;33.10
68235;DHT22;55052;52.056;5.296;2022-07-17T14:27:17;31.70;32.80
68235;DHT22;55052;52.056;5.296;2022-07-17T14:29:44;31.60;32.60
68235;DHT22;55052;52.056;5.296;2022-07-17T14:32:11;31.50;32.20
68235;DHT22;55052;52.056;5.296;2022-07-17T14:34:38;31.30;32.40
68235;DHT22;55052;52.056;5.296;2022-07-17T14:37:04;31.10;32.40
68235;DHT22;55052;52.056;5.296;2022-07-17T14:39:34;30.90;32.40
68235;DHT22;55052;52.056;5.296;2022-07-17T14:42:02;30.70;32.50
68235;DHT22;55052;52.056;5.296;2022-07-17T14:44:29;30.50;32.10
68235;DHT22;55052;52.056;5.296;2022-07-17T14:46:58;30.30;32.10
68235;DHT22;55052;52.056;5.296;2022-07-17T14:49:26;30.10;32.00
68235;DHT22;55052;52.056;5.296;2022-07-17T14:51:53;30.00;32.40
68235;DHT22;55052;52.056;5.296;2022-07-17T14:54:20;29.80;32.30
68235;DHT22;55052;52.056;5.296;2022-07-17T14:56:46;29.60;32.30
68235;DHT22;55052;52.056;5.296;2022-07-17T14:59:13;29.50;32.30
68235;DHT22;55052;52.056;5.296;2022-07-17T15:01:40;29.30;31.90
68235;DHT22;55052;52.056;5.296;2022-07-17T15:04:07;29.20;32.00
68235;DHT22;55052;52.056;5.296;2022-07-17T15:06:34;29.10;31.80
68235;DHT22;55052;52.056;5.296;2022-07-17T15:09:02;29.00;31.70
68235;DHT22;55052;52.056;5.296;2022-07-17T15:11:28;28.90;31.80
68235;DHT22;55052;52.056;5.296;2022-07-17T15:13:55;28.80;31.70
68235;DHT22;55052;52.056;5.296;2022-07-17T15:16:22;28.70;31.90
68235;DHT22;55052;52.056;5.296;2022-07-17T15:18:49;28.60;32.10
68235;DHT22;55052;52.056;5.296;2022-07-17T15:21:15;28.50;32.10
68235;DHT22;55052;52.056;5.296;2022-07-17T15:24:02;28.50;32.20
68235;DHT22;55052;52.056;5.296;2022-07-17T15:26:29;28.40;31.60
68235;DHT22;55052;52.056;5.296;2022-07-17T15:28:58;28.40;31.40
68235;DHT22;55052;52.056;5.296;2022-07-17T15:31:24;28.40;31.60
68235;DHT22;55052;52.056;5.296;2022-07-17T15:33:51;28.30;31.60
68235;DHT22;55052;52.056;5.296;2022-07-17T15:36:19;28.30;32.10
68235;DHT22;55052;52.056;5.296;2022-07-17T15:38:57;28.30;32.10
68235;DHT22;55052;52.056;5.296;2022-07-17T15:41:26;28.30;32.50
68235;DHT22;55052;52.056;5.296;2022-07-17T15:43:53;28.30;32.90
68235;DHT22;55052;52.056;5.296;2022-07-17T15:46:20;28.20;32.60
68235;DHT22;55052;52.056;5.296;2022-07-17T15:48:47;28.20;32.90
68235;DHT22;55052;52.056;5.296;2022-07-17T15:51:13;28.20;32.80
68235;DHT22;55052;52.056;5.296;2022-07-17T15:53:40;28.10;32.50
68235;DHT22;55052;52.056;5.296;2022-07-17T15:56:08;28.10;32.40
68235;DHT22;55052;52.056;5.296;2022-07-17T15:58:35;28.10;31.90
68235;DHT22;55052;52.056;5.296;2022-07-17T16:01:01;28.00;32.10